Terminal Aerodrome Forecast
Issued by NWS Charleston, SC

Home | Current Version | Previous Version | Text Only | Print | Product List | Glossary On
Versions: 1 2 3 4 5 6 7 8 9 10 11 12 13 14 15 16 17 18 19
497
FTUS42 KCHS 252334
TAFSAV
TAF
KSAV 252334Z 2600/2624 10006KT P6SM BKN200
     FM260900 04004KT P6SM SCT020 BKN050
     FM261800 10006KT P6SM SCT040 BKN070=

USA.gov is the U.S. government's official web portal to all federal, state and local government web resources and services.